Hixton, Wisconsin
Current Conditions -  °F | °C
As of 5:15 PM on Sunday 21 Dec 2014 (Local Time) from KBCK Reporting Station
Haze Haze  
Wind Chill: 31°   Ceiling: 900
Heat Index: 37°   Visibility: 3mi
Dew Point: 37°   Wind: 7mph
Humidity: 100%   Direction: 160°SSE
Pressure: 29.86"   Gusts: NA
Location:  44.39°N, 91.01°W
Report Text: KBCK 212315Z AUTO 16006KT 3SM BR OVC009 03/03 A2986 RMK AO2 T00270027
Loading
Personal Weather Stations






























Interactive Weather Map New forecast layout! Learn more

10-Day Weather Forecast

Advertisements
Track Severe Weather on mobile